sensor_id;sensor_type;location;lat;lon;timestamp;temperature;humidity
1534;DHT22;760;48.822;9.304;2024-01-30T05:05:56;1.60;99.90
1534;DHT22;760;48.822;9.304;2024-01-30T05:08:21;1.50;99.90
1534;DHT22;760;48.822;9.304;2024-01-30T05:10:47;1.60;99.90
1534;DHT22;760;48.822;9.304;2024-01-30T05:13:12;1.60;99.90
1534;DHT22;760;48.822;9.304;2024-01-30T05:15:39;1.70;99.90
1534;DHT22;760;48.822;9.304;2024-01-30T05:18:04;1.60;99.90
1534;DHT22;760;48.822;9.304;2024-01-30T05:20:30;1.70;99.90
1534;DHT22;760;48.822;9.304;2024-01-30T05:22:56;1.70;99.90
1534;DHT22;760;48.822;9.304;2024-01-30T05:25:21;1.60;99.90
1534;DHT22;760;48.822;9.304;2024-01-30T05:27:47;1.60;99.90
1534;DHT22;760;48.822;9.304;2024-01-30T05:30:13;1.60;99.90
1534;DHT22;760;48.822;9.304;2024-01-30T05:32:38;1.60;99.90
1534;DHT22;760;48.822;9.304;2024-01-30T05:35:04;1.50;99.90
1534;DHT22;760;48.822;9.304;2024-01-30T05:37:30;1.60;99.90
1534;DHT22;760;48.822;9.304;2024-01-30T05:39:56;1.60;99.90
1534;DHT22;760;48.822;9.304;2024-01-30T05:42:21;1.60;99.90
1534;DHT22;760;48.822;9.304;2024-01-30T05:44:47;1.50;99.90
1534;DHT22;760;48.822;9.304;2024-01-30T05:47:12;1.60;99.90
1534;DHT22;760;48.822;9.304;2024-01-30T05:49:38;1.50;99.90
1534;DHT22;760;48.822;9.304;2024-01-30T05:52:04;1.60;99.90
1534;DHT22;760;48.822;9.304;2024-01-30T05:54:30;1.60;99.90
1534;DHT22;760;48.822;9.304;2024-01-30T05:56:56;1.60;99.90
1534;DHT22;760;48.822;9.304;2024-01-30T05:59:21;1.60;99.90
1534;DHT22;760;48.822;9.304;2024-01-30T06:01:47;1.60;99.90
1534;DHT22;760;48.822;9.304;2024-01-30T06:04:13;1.60;99.90
1534;DHT22;760;48.822;9.304;2024-01-30T06:06:40;1.60;99.90
1534;DHT22;760;48.822;9.304;2024-01-30T06:09:05;1.60;99.90
1534;DHT22;760;48.822;9.304;2024-01-30T06:11:31;1.60;99.90
1534;DHT22;760;48.822;9.304;2024-01-30T06:13:56;1.60;99.90
1534;DHT22;760;48.822;9.304;2024-01-30T06:16:22;1.70;99.90
1534;DHT22;760;48.822;9.304;2024-01-30T06:18:48;1.70;99.90
1534;DHT22;760;48.822;9.304;2024-01-30T06:21:14;1.70;99.90
1534;DHT22;760;48.822;9.304;2024-01-30T06:23:42;1.80;99.90
1534;DHT22;760;48.822;9.304;2024-01-30T06:26:07;1.80;99.90
1534;DHT22;760;48.822;9.304;2024-01-30T06:28:33;1.80;99.90
1534;DHT22;760;48.822;9.304;2024-01-30T06:31:01;1.70;99.90
1534;DHT22;760;48.822;9.304;2024-01-30T06:33:26;1.80;99.90
1534;DHT22;760;48.822;9.304;2024-01-30T06:35:52;1.80;99.90
1534;DHT22;760;48.822;9.304;2024-01-30T06:38:17;1.80;99.90
1534;DHT22;760;48.822;9.304;2024-01-30T06:40:43;1.80;99.90
1534;DHT22;760;48.822;9.304;2024-01-30T06:43:09;1.80;99.90
1534;DHT22;760;48.822;9.304;2024-01-30T06:45:34;1.70;99.90
1534;DHT22;760;48.822;9.304;2024-01-30T06:48:00;1.80;99.90
1534;DHT22;760;48.822;9.304;2024-01-30T06:50:26;1.80;99.90
1534;DHT22;760;48.822;9.304;2024-01-30T06:52:52;1.80;99.90
1534;DHT22;760;48.822;9.304;2024-01-30T06:55:18;1.90;99.90
1534;DHT22;760;48.822;9.304;2024-01-30T06:57:43;1.90;99.90
1534;DHT22;760;48.822;9.304;2024-01-30T07:00:09;1.90;99.90
1534;DHT22;760;48.822;9.304;2024-01-30T07:02:35;2.00;99.90
1534;DHT22;760;48.822;9.304;2024-01-30T07:05:02;2.00;99.90
1534;DHT22;760;48.822;9.304;2024-01-30T07:07:28;2.00;99.90
1534;DHT22;760;48.822;9.304;2024-01-30T07:09:54;2.00;99.90
1534;DHT22;760;48.822;9.304;2024-01-30T07:12:22;2.00;99.90
1534;DHT22;760;48.822;9.304;2024-01-30T07:14:50;2.10;99.90
1534;DHT22;760;48.822;9.304;2024-01-30T07:17:15;2.00;99.90
1534;DHT22;760;48.822;9.304;2024-01-30T07:19:41;2.10;99.90
1534;DHT22;760;48.822;9.304;2024-01-30T07:22:07;2.20;99.90
1534;DHT22;760;48.822;9.304;2024-01-30T07:24:33;2.20;99.90
1534;DHT22;760;48.822;9.304;2024-01-30T07:26:59;2.30;99.90
1534;DHT22;760;48.822;9.304;2024-01-30T07:29:25;2.40;99.90
1534;DHT22;760;48.822;9.304;2024-01-30T07:31:50;2.50;99.90
1534;DHT22;760;48.822;9.304;2024-01-30T07:34:16;2.70;99.90
1534;DHT22;760;48.822;9.304;2024-01-30T07:36:42;2.80;99.90
1534;DHT22;760;48.822;9.304;2024-01-30T07:39:07;3.00;99.90
1534;DHT22;760;48.822;9.304;2024-01-30T07:41:33;3.20;99.90
1534;DHT22;760;48.822;9.304;2024-01-30T07:43:59;3.50;99.90
1534;DHT22;760;48.822;9.304;2024-01-30T07:46:24;3.80;99.90
1534;DHT22;760;48.822;9.304;2024-01-30T07:48:53;4.00;99.90
1534;DHT22;760;48.822;9.304;2024-01-30T07:51:18;4.20;99.90
1534;DHT22;760;48.822;9.304;2024-01-30T07:53:45;4.30;99.90
1534;DHT22;760;48.822;9.304;2024-01-30T07:56:11;4.30;99.90
1534;DHT22;760;48.822;9.304;2024-01-30T07:58:37;4.40;99.90
1534;DHT22;760;48.822;9.304;2024-01-30T08:01:03;4.50;99.90
1534;DHT22;760;48.822;9.304;2024-01-30T08:03:28;4.50;99.90
1534;DHT22;760;48.822;9.304;2024-01-30T08:05:54;4.60;99.90
1534;DHT22;760;48.822;9.304;2024-01-30T08:08:20;4.50;99.90
1534;DHT22;760;48.822;9.304;2024-01-30T08:10:46;4.60;99.90
1534;DHT22;760;48.822;9.304;2024-01-30T08:13:12;4.60;99.90
1534;DHT22;760;48.822;9.304;2024-01-30T08:15:37;4.60;99.90
1534;DHT22;760;48.822;9.304;2024-01-30T08:18:03;4.70;99.90
1534;DHT22;760;48.822;9.304;2024-01-30T08:20:29;4.80;99.90
1534;DHT22;760;48.822;9.304;2024-01-30T08:22:56;5.00;99.90
1534;DHT22;760;48.822;9.304;2024-01-30T08:25:21;5.20;99.90
1534;DHT22;760;48.822;9.304;2024-01-30T08:27:47;5.30;99.90
1534;DHT22;760;48.822;9.304;2024-01-30T08:30:13;5.30;99.90
1534;DHT22;760;48.822;9.304;2024-01-30T08:32:38;5.50;99.90
1534;DHT22;760;48.822;9.304;2024-01-30T08:35:04;5.80;99.90
1534;DHT22;760;48.822;9.304;2024-01-30T08:37:30;6.10;99.90
1534;DHT22;760;48.822;9.304;2024-01-30T08:39:55;6.60;99.90
1534;DHT22;760;48.822;9.304;2024-01-30T08:42:22;7.10;99.90
1534;DHT22;760;48.822;9.304;2024-01-30T08:44:48;7.70;99.90
1534;DHT22;760;48.822;9.304;2024-01-30T08:47:15;8.20;99.90
1534;DHT22;760;48.822;9.304;2024-01-30T08:49:43;8.50;99.90
1534;DHT22;760;48.822;9.304;2024-01-30T08:52:10;9.00;99.90
1534;DHT22;760;48.822;9.304;2024-01-30T08:54:36;9.60;99.90
1534;DHT22;760;48.822;9.304;2024-01-30T08:57:01;10.20;99.90
1534;DHT22;760;48.822;9.304;2024-01-30T08:59:27;10.80;99.90
1534;DHT22;760;48.822;9.304;2024-01-30T09:01:53;11.30;99.40
1534;DHT22;760;48.822;9.304;2024-01-30T09:04:21;11.90;98.80
1534;DHT22;760;48.822;9.304;2024-01-30T09:06:47;12.40;96.60
1534;DHT22;760;48.822;9.304;2024-01-30T09:09:13;12.80;95.20
1534;DHT22;760;48.822;9.304;2024-01-30T09:11:40;12.90;94.40
1534;DHT22;760;48.822;9.304;2024-01-30T09:14:05;12.90;93.60
1534;DHT22;760;48.822;9.304;2024-01-30T09:16:31;12.80;92.80
1534;DHT22;760;48.822;9.304;2024-01-30T09:18:57;12.60;93.20
1534;DHT22;760;48.822;9.304;2024-01-30T09:21:23;12.50;93.40
1534;DHT22;760;48.822;9.304;2024-01-30T09:23:48;12.40;93.70
1534;DHT22;760;48.822;9.304;2024-01-30T09:26:14;12.20;93.80
1534;DHT22;760;48.822;9.304;2024-01-30T09:28:40;12.40;94.00
1534;DHT22;760;48.822;9.304;2024-01-30T09:31:11;12.50;93.60
1534;DHT22;760;48.822;9.304;2024-01-30T09:33:38;12.50;93.70
1534;DHT22;760;48.822;9.304;2024-01-30T09:36:05;12.60;93.60
1534;DHT22;760;48.822;9.304;2024-01-30T09:38:31;12.70;93.50
1534;DHT22;760;48.822;9.304;2024-01-30T09:41:02;12.90;93.10
1534;DHT22;760;48.822;9.304;2024-01-30T09:43:32;13.10;92.70
1534;DHT22;760;48.822;9.304;2024-01-30T09:45:59;13.20;92.90
1534;DHT22;760;48.822;9.304;2024-01-30T09:48:26;13.40;93.00
1534;DHT22;760;48.822;9.304;2024-01-30T09:50:52;13.60;92.10
1534;DHT22;760;48.822;9.304;2024-01-30T09:53:19;13.80;91.90
1534;DHT22;760;48.822;9.304;2024-01-30T09:55:45;14.10;91.70
1534;DHT22;760;48.822;9.304;2024-01-30T09:58:12;14.40;91.00
1534;DHT22;760;48.822;9.304;2024-01-30T10:00:38;14.70;90.30
1534;DHT22;760;48.822;9.304;2024-01-30T10:03:04;14.90;89.60
1534;DHT22;760;48.822;9.304;2024-01-30T10:05:31;14.80;88.40
1534;DHT22;760;48.822;9.304;2024-01-30T10:07:59;14.60;87.90
1534;DHT22;760;48.822;9.304;2024-01-30T10:10:25;14.30;88.70
1534;DHT22;760;48.822;9.304;2024-01-30T10:12:53;14.00;89.80
1534;DHT22;760;48.822;9.304;2024-01-30T10:15:19;13.80;90.10
1534;DHT22;760;48.822;9.304;2024-01-30T10:17:45;13.80;90.40
1534;DHT22;760;48.822;9.304;2024-01-30T10:20:12;13.90;90.30
1534;DHT22;760;48.822;9.304;2024-01-30T10:22:40;13.90;90.40
1534;DHT22;760;48.822;9.304;2024-01-30T10:25:08;13.90;90.50
1534;DHT22;760;48.822;9.304;2024-01-30T10:27:34;14.00;91.00
1534;DHT22;760;48.822;9.304;2024-01-30T10:30:00;14.30;90.50
1534;DHT22;760;48.822;9.304;2024-01-30T10:32:26;14.50;90.20
1534;DHT22;760;48.822;9.304;2024-01-30T10:34:52;14.60;90.30
1534;DHT22;760;48.822;9.304;2024-01-30T10:37:19;14.70;89.40
1534;DHT22;760;48.822;9.304;2024-01-30T10:39:46;14.60;89.10
1534;DHT22;760;48.822;9.304;2024-01-30T10:42:14;14.60;89.10
1534;DHT22;760;48.822;9.304;2024-01-30T10:45:08;14.50;89.00
1534;DHT22;760;48.822;9.304;2024-01-30T10:47:37;14.20;89.90
1534;DHT22;760;48.822;9.304;2024-01-30T10:50:03;13.90;90.40
1534;DHT22;760;48.822;9.304;2024-01-30T10:52:29;13.70;90.60
1534;DHT22;760;48.822;9.304;2024-01-30T10:54:55;13.50;90.90
1534;DHT22;760;48.822;9.304;2024-01-30T10:57:26;13.40;91.30
1534;DHT22;760;48.822;9.304;2024-01-30T11:00:00;13.50;91.60
1534;DHT22;760;48.822;9.304;2024-01-30T11:02:26;13.40;91.80
1534;DHT22;760;48.822;9.304;2024-01-30T11:04:57;13.30;92.20
1534;DHT22;760;48.822;9.304;2024-01-30T11:07:28;13.30;92.10
1534;DHT22;760;48.822;9.304;2024-01-30T11:12:33;13.10;91.90
1534;DHT22;760;48.822;9.304;2024-01-30T11:15:06;13.00;92.10
1534;DHT22;760;48.822;9.304;2024-01-30T11:17:45;12.90;92.30
1534;DHT22;760;48.822;9.304;2024-01-30T11:20:15;12.90;92.60
1534;DHT22;760;48.822;9.304;2024-01-30T11:22:45;12.90;92.60
1534;DHT22;760;48.822;9.304;2024-01-30T11:25:15;13.00;92.60
1534;DHT22;760;48.822;9.304;2024-01-30T11:27:42;13.00;92.70
1534;DHT22;760;48.822;9.304;2024-01-30T11:30:08;13.10;92.60
1534;DHT22;760;48.822;9.304;2024-01-30T11:32:34;13.20;92.70
1534;DHT22;760;48.822;9.304;2024-01-30T11:35:00;13.20;92.80
1534;DHT22;760;48.822;9.304;2024-01-30T11:37:26;13.10;92.80
1534;DHT22;760;48.822;9.304;2024-01-30T11:39:53;13.10;92.70
1534;DHT22;760;48.822;9.304;2024-01-30T11:42:23;13.10;92.80
1534;DHT22;760;48.822;9.304;2024-01-30T11:44:52;13.10;92.90
1534;DHT22;760;48.822;9.304;2024-01-30T11:47:18;13.00;93.00
1534;DHT22;760;48.822;9.304;2024-01-30T11:49:44;13.00;93.10
1534;DHT22;760;48.822;9.304;2024-01-30T11:52:10;12.90;93.30
1534;DHT22;760;48.822;9.304;2024-01-30T11:54:35;13.00;93.50
1534;DHT22;760;48.822;9.304;2024-01-30T11:57:01;13.10;93.10
1534;DHT22;760;48.822;9.304;2024-01-30T11:59:26;13.10;93.10
1534;DHT22;760;48.822;9.304;2024-01-30T12:01:52;13.20;92.90
1534;DHT22;760;48.822;9.304;2024-01-30T12:04:18;13.10;92.70
1534;DHT22;760;48.822;9.304;2024-01-30T12:06:44;13.10;92.40
1534;DHT22;760;48.822;9.304;2024-01-30T12:09:09;13.20;92.40
1534;DHT22;760;48.822;9.304;2024-01-30T12:11:47;13.20;92.10
1534;DHT22;760;48.822;9.304;2024-01-30T12:14:14;13.30;92.20
1534;DHT22;760;48.822;9.304;2024-01-30T12:16:40;13.30;91.90
1534;DHT22;760;48.822;9.304;2024-01-30T12:19:07;13.40;92.00
1534;DHT22;760;48.822;9.304;2024-01-30T12:21:33;13.40;92.40
1534;DHT22;760;48.822;9.304;2024-01-30T12:23:59;13.40;92.20
1534;DHT22;760;48.822;9.304;2024-01-30T12:26:25;13.50;92.20
1534;DHT22;760;48.822;9.304;2024-01-30T12:28:54;13.50;92.20
1534;DHT22;760;48.822;9.304;2024-01-30T12:31:26;13.60;92.20
1534;DHT22;760;48.822;9.304;2024-01-30T12:33:53;13.60;92.30
1534;DHT22;760;48.822;9.304;2024-01-30T12:36:18;13.70;92.40
1534;DHT22;760;48.822;9.304;2024-01-30T12:38:44;13.70;92.40
1534;DHT22;760;48.822;9.304;2024-01-30T12:41:10;13.70;92.40
1534;DHT22;760;48.822;9.304;2024-01-30T12:43:36;13.70;92.40
1534;DHT22;760;48.822;9.304;2024-01-30T12:46:03;13.70;92.40
1534;DHT22;760;48.822;9.304;2024-01-30T12:48:28;13.60;92.70
1534;DHT22;760;48.822;9.304;2024-01-30T12:50:55;13.60;92.60
1534;DHT22;760;48.822;9.304;2024-01-30T12:53:21;13.60;92.50
1534;DHT22;760;48.822;9.304;2024-01-30T12:55:47;13.60;92.40
1534;DHT22;760;48.822;9.304;2024-01-30T12:58:12;13.60;92.50
1534;DHT22;760;48.822;9.304;2024-01-30T13:00:38;13.60;92.30
1534;DHT22;760;48.822;9.304;2024-01-30T13:03:04;13.60;91.70
1534;DHT22;760;48.822;9.304;2024-01-30T13:05:30;13.70;91.80
1534;DHT22;760;48.822;9.304;2024-01-30T13:07:55;13.70;91.90
1534;DHT22;760;48.822;9.304;2024-01-30T13:10:23;13.70;92.00
1534;DHT22;760;48.822;9.304;2024-01-30T13:12:48;13.80;92.20
1534;DHT22;760;48.822;9.304;2024-01-30T13:15:14;13.70;93.30
1534;DHT22;760;48.822;9.304;2024-01-30T13:17:40;13.70;93.60
1534;DHT22;760;48.822;9.304;2024-01-30T13:20:08;13.70;93.30
1534;DHT22;760;48.822;9.304;2024-01-30T13:22:34;13.70;92.80
1534;DHT22;760;48.822;9.304;2024-01-30T13:24:59;13.60;93.00
1534;DHT22;760;48.822;9.304;2024-01-30T13:27:25;13.50;95.80
1534;DHT22;760;48.822;9.304;2024-01-30T13:29:51;13.40;97.50
1534;DHT22;760;48.822;9.304;2024-01-30T13:32:16;13.40;97.80
1534;DHT22;760;48.822;9.304;2024-01-30T13:34:42;13.30;98.20
1534;DHT22;760;48.822;9.304;2024-01-30T13:37:08;13.20;98.40
1534;DHT22;760;48.822;9.304;2024-01-30T13:39:34;13.20;98.70
1534;DHT22;760;48.822;9.304;2024-01-30T13:42:00;13.20;99.10
1534;DHT22;760;48.822;9.304;2024-01-30T13:44:26;13.20;98.70
1534;DHT22;760;48.822;9.304;2024-01-30T13:46:52;13.20;98.00
1534;DHT22;760;48.822;9.304;2024-01-30T13:49:17;13.10;98.10
1534;DHT22;760;48.822;9.304;2024-01-30T13:51:43;13.10;98.10
1534;DHT22;760;48.822;9.304;2024-01-30T13:54:08;13.10;97.90
1534;DHT22;760;48.822;9.304;2024-01-30T13:56:37;13.20;97.70
1534;DHT22;760;48.822;9.304;2024-01-30T13:59:02;13.20;96.80
1534;DHT22;760;48.822;9.304;2024-01-30T14:01:31;13.20;96.70
1534;DHT22;760;48.822;9.304;2024-01-30T14:03:56;13.20;97.00
1534;DHT22;760;48.822;9.304;2024-01-30T14:06:22;13.20;96.60
1534;DHT22;760;48.822;9.304;2024-01-30T14:08:47;13.20;96.50
1534;DHT22;760;48.822;9.304;2024-01-30T14:11:13;13.30;96.60
1534;DHT22;760;48.822;9.304;2024-01-30T14:13:38;13.30;96.40
1534;DHT22;760;48.822;9.304;2024-01-30T14:16:05;13.30;96.10
1534;DHT22;760;48.822;9.304;2024-01-30T14:18:30;13.30;95.60
1534;DHT22;760;48.822;9.304;2024-01-30T14:20:56;13.20;95.30
1534;DHT22;760;48.822;9.304;2024-01-30T14:23:21;13.20;95.40
1534;DHT22;760;48.822;9.304;2024-01-30T14:25:47;13.20;95.30
1534;DHT22;760;48.822;9.304;2024-01-30T14:28:13;13.20;95.30
1534;DHT22;760;48.822;9.304;2024-01-30T14:30:38;13.20;95.00
1534;DHT22;760;48.822;9.304;2024-01-30T14:33:04;13.10;94.90
1534;DHT22;760;48.822;9.304;2024-01-30T14:35:30;13.10;95.00
1534;DHT22;760;48.822;9.304;2024-01-30T14:37:55;13.10;95.30
1534;DHT22;760;48.822;9.304;2024-01-30T14:40:21;13.00;96.10
1534;DHT22;760;48.822;9.304;2024-01-30T14:42:46;12.90;96.50
1534;DHT22;760;48.822;9.304;2024-01-30T14:45:12;12.90;97.20
1534;DHT22;760;48.822;9.304;2024-01-30T14:47:38;12.80;98.20
1534;DHT22;760;48.822;9.304;2024-01-30T14:50:04;12.60;98.60
1534;DHT22;760;48.822;9.304;2024-01-30T14:52:31;12.60;98.90
1534;DHT22;760;48.822;9.304;2024-01-30T14:54:57;12.50;99.40
1534;DHT22;760;48.822;9.304;2024-01-30T14:57:24;12.40;99.40
1534;DHT22;760;48.822;9.304;2024-01-30T14:59:49;12.40;99.40
1534;DHT22;760;48.822;9.304;2024-01-30T15:02:15;12.40;99.90
1534;DHT22;760;48.822;9.304;2024-01-30T15:04:40;12.30;99.90
1534;DHT22;760;48.822;9.304;2024-01-30T15:07:06;12.20;99.90
1534;DHT22;760;48.822;9.304;2024-01-30T15:09:32;12.10;99.90
1534;DHT22;760;48.822;9.304;2024-01-30T15:11:58;12.00;99.90
1534;DHT22;760;48.822;9.304;2024-01-30T15:14:23;11.90;99.90
1534;DHT22;760;48.822;9.304;2024-01-30T15:16:49;11.70;99.90
1534;DHT22;760;48.822;9.304;2024-01-30T15:19:15;11.60;99.90
1534;DHT22;760;48.822;9.304;2024-01-30T15:21:41;11.60;99.90
1534;DHT22;760;48.822;9.304;2024-01-30T15:24:06;11.50;99.90
1534;DHT22;760;48.822;9.304;2024-01-30T15:26:32;11.50;99.90
1534;DHT22;760;48.822;9.304;2024-01-30T15:28:58;11.50;99.90
1534;DHT22;760;48.822;9.304;2024-01-30T15:31:23;11.50;99.90
1534;DHT22;760;48.822;9.304;2024-01-30T15:33:49;11.50;99.90
1534;DHT22;760;48.822;9.304;2024-01-30T15:36:14;11.50;99.90
1534;DHT22;760;48.822;9.304;2024-01-30T15:38:41;11.40;99.90
1534;DHT22;760;48.822;9.304;2024-01-30T15:41:07;11.40;99.90
1534;DHT22;760;48.822;9.304;2024-01-30T15:43:32;11.40;99.90
1534;DHT22;760;48.822;9.304;2024-01-30T15:46:01;11.40;99.90
1534;DHT22;760;48.822;9.304;2024-01-30T15:48:27;11.30;99.90
1534;DHT22;760;48.822;9.304;2024-01-30T15:50:53;11.20;99.90
1534;DHT22;760;48.822;9.304;2024-01-30T15:53:22;11.20;99.90
1534;DHT22;760;48.822;9.304;2024-01-30T15:55:47;11.10;99.90
1534;DHT22;760;48.822;9.304;2024-01-30T15:58:13;11.10;99.90
1534;DHT22;760;48.822;9.304;2024-01-30T16:00:40;11.00;99.90
1534;DHT22;760;48.822;9.304;2024-01-30T16:03:05;10.90;99.90
1534;DHT22;760;48.822;9.304;2024-01-30T16:05:31;10.90;99.90
1534;DHT22;760;48.822;9.304;2024-01-30T16:07:56;10.80;99.90
1534;DHT22;760;48.822;9.304;2024-01-30T16:10:22;10.80;99.90
1534;DHT22;760;48.822;9.304;2024-01-30T16:12:48;10.70;99.90
1534;DHT22;760;48.822;9.304;2024-01-30T16:15:14;10.60;99.90
1534;DHT22;760;48.822;9.304;2024-01-30T16:17:40;10.50;99.90
1534;DHT22;760;48.822;9.304;2024-01-30T16:20:07;10.50;99.90
1534;DHT22;760;48.822;9.304;2024-01-30T16:22:33;10.40;99.90
1534;DHT22;760;48.822;9.304;2024-01-30T16:24:59;10.40;99.90
1534;DHT22;760;48.822;9.304;2024-01-30T16:27:24;10.40;99.90
1534;DHT22;760;48.822;9.304;2024-01-30T16:29:53;10.30;99.90
1534;DHT22;760;48.822;9.304;2024-01-30T16:32:19;10.30;99.90
1534;DHT22;760;48.822;9.304;2024-01-30T16:34:44;10.30;99.90
1534;DHT22;760;48.822;9.304;2024-01-30T16:37:10;10.30;99.90
1534;DHT22;760;48.822;9.304;2024-01-30T16:39:36;10.30;99.90
1534;DHT22;760;48.822;9.304;2024-01-30T16:42:03;10.20;99.90
1534;DHT22;760;48.822;9.304;2024-01-30T16:44:28;10.20;99.90
1534;DHT22;760;48.822;9.304;2024-01-30T16:46:54;10.20;99.90
1534;DHT22;760;48.822;9.304;2024-01-30T16:49:20;10.20;99.90
1534;DHT22;760;48.822;9.304;2024-01-30T16:51:46;10.20;99.90
1534;DHT22;760;48.822;9.304;2024-01-30T16:54:11;10.10;99.90
1534;DHT22;760;48.822;9.304;2024-01-30T16:56:37;10.10;99.90
1534;DHT22;760;48.822;9.304;2024-01-30T16:59:03;10.10;99.90
1534;DHT22;760;48.822;9.304;2024-01-30T17:01:28;10.20;99.90
1534;DHT22;760;48.822;9.304;2024-01-30T17:03:54;10.20;99.90
1534;DHT22;760;48.822;9.304;2024-01-30T17:06:19;10.20;99.90
1534;DHT22;760;48.822;9.304;2024-01-30T17:08:45;10.10;99.90
1534;DHT22;760;48.822;9.304;2024-01-30T17:11:11;10.10;99.90
1534;DHT22;760;48.822;9.304;2024-01-30T17:13:36;10.10;99.90
1534;DHT22;760;48.822;9.304;2024-01-30T17:16:02;10.00;99.90
1534;DHT22;760;48.822;9.304;2024-01-30T17:18:29;10.00;99.90
1534;DHT22;760;48.822;9.304;2024-01-30T17:20:55;10.00;99.90
1534;DHT22;760;48.822;9.304;2024-01-30T17:23:21;10.00;99.90
1534;DHT22;760;48.822;9.304;2024-01-30T17:25:50;10.00;99.90
1534;DHT22;760;48.822;9.304;2024-01-30T17:28:16;10.00;99.90
1534;DHT22;760;48.822;9.304;2024-01-30T17:30:42;9.90;99.90
1534;DHT22;760;48.822;9.304;2024-01-30T17:33:07;9.90;99.90
1534;DHT22;760;48.822;9.304;2024-01-30T17:35:33;9.90;99.90
1534;DHT22;760;48.822;9.304;2024-01-30T17:37:59;9.80;99.90
1534;DHT22;760;48.822;9.304;2024-01-30T17:40:24;9.80;99.90
1534;DHT22;760;48.822;9.304;2024-01-30T17:42:50;9.70;99.90
1534;DHT22;760;48.822;9.304;2024-01-30T17:45:16;9.70;99.90
1534;DHT22;760;48.822;9.304;2024-01-30T17:47:41;9.70;99.90
1534;DHT22;760;48.822;9.304;2024-01-30T17:50:07;9.70;99.90
1534;DHT22;760;48.822;9.304;2024-01-30T17:52:33;9.70;99.90
1534;DHT22;760;48.822;9.304;2024-01-30T17:54:59;9.60;99.90
1534;DHT22;760;48.822;9.304;2024-01-30T17:57:24;9.60;99.90
1534;DHT22;760;48.822;9.304;2024-01-30T17:59:50;9.60;99.90
1534;DHT22;760;48.822;9.304;2024-01-30T18:02:16;9.60;99.90
1534;DHT22;760;48.822;9.304;2024-01-30T18:04:42;9.60;99.90
1534;DHT22;760;48.822;9.304;2024-01-30T18:07:08;9.60;99.90
1534;DHT22;760;48.822;9.304;2024-01-30T18:09:34;9.60;99.90
1534;DHT22;760;48.822;9.304;2024-01-30T18:11:59;9.60;99.90
1534;DHT22;760;48.822;9.304;2024-01-30T18:14:25;9.50;99.90
1534;DHT22;760;48.822;9.304;2024-01-30T18:16:51;9.50;99.90
1534;DHT22;760;48.822;9.304;2024-01-30T18:19:17;9.50;99.90
1534;DHT22;760;48.822;9.304;2024-01-30T18:21:43;9.50;99.90
1534;DHT22;760;48.822;9.304;2024-01-30T18:24:09;9.50;99.90
1534;DHT22;760;48.822;9.304;2024-01-30T18:26:35;9.50;99.90
1534;DHT22;760;48.822;9.304;2024-01-30T18:29:01;9.50;99.90
1534;DHT22;760;48.822;9.304;2024-01-30T18:31:27;9.40;99.90
1534;DHT22;760;48.822;9.304;2024-01-30T18:33:53;9.40;99.90
1534;DHT22;760;48.822;9.304;2024-01-30T18:36:23;9.40;99.90
1534;DHT22;760;48.822;9.304;2024-01-30T18:38:56;9.50;99.90
1534;DHT22;760;48.822;9.304;2024-01-30T18:41:23;9.50;99.90
1534;DHT22;760;48.822;9.304;2024-01-30T18:43:49;9.50;99.90
1534;DHT22;760;48.822;9.304;2024-01-30T18:46:14;9.50;99.90
1534;DHT22;760;48.822;9.304;2024-01-30T18:48:41;9.50;99.90
1534;DHT22;760;48.822;9.304;2024-01-30T18:51:07;9.40;99.90
1534;DHT22;760;48.822;9.304;2024-01-30T18:53:39;9.40;99.90
1534;DHT22;760;48.822;9.304;2024-01-30T18:56:04;9.40;99.90
1534;DHT22;760;48.822;9.304;2024-01-30T18:58:30;9.40;99.90
1534;DHT22;760;48.822;9.304;2024-01-30T19:00:56;9.40;99.90
1534;DHT22;760;48.822;9.304;2024-01-30T19:03:22;9.40;99.90
1534;DHT22;760;48.822;9.304;2024-01-30T19:05:47;9.40;99.90
1534;DHT22;760;48.822;9.304;2024-01-30T19:08:13;9.40;99.90
1534;DHT22;760;48.822;9.304;2024-01-30T19:10:40;9.40;99.90
1534;DHT22;760;48.822;9.304;2024-01-30T19:13:06;9.40;99.90
1534;DHT22;760;48.822;9.304;2024-01-30T19:15:32;9.30;99.90
1534;DHT22;760;48.822;9.304;2024-01-30T19:17:58;9.30;99.90
1534;DHT22;760;48.822;9.304;2024-01-30T19:20:27;9.30;99.90
1534;DHT22;760;48.822;9.304;2024-01-30T19:22:53;9.30;99.90
1534;DHT22;760;48.822;9.304;2024-01-30T19:25:19;9.20;99.90
1534;DHT22;760;48.822;9.304;2024-01-30T19:27:44;9.20;99.90
1534;DHT22;760;48.822;9.304;2024-01-30T19:30:10;9.20;99.90
1534;DHT22;760;48.822;9.304;2024-01-30T19:32:36;9.20;99.90
1534;DHT22;760;48.822;9.304;2024-01-30T19:35:03;9.10;99.90
1534;DHT22;760;48.822;9.304;2024-01-30T19:37:29;9.20;99.90
1534;DHT22;760;48.822;9.304;2024-01-30T19:40:03;9.10;99.90
1534;DHT22;760;48.822;9.304;2024-01-30T19:42:32;9.10;99.90
1534;DHT22;760;48.822;9.304;2024-01-30T19:44:58;9.10;99.90
1534;DHT22;760;48.822;9.304;2024-01-30T19:47:23;9.10;99.90
1534;DHT22;760;48.822;9.304;2024-01-30T19:49:49;9.10;99.90
1534;DHT22;760;48.822;9.304;2024-01-30T19:52:14;9.00;99.90
1534;DHT22;760;48.822;9.304;2024-01-30T19:54:40;9.00;99.90
1534;DHT22;760;48.822;9.304;2024-01-30T19:57:09;9.00;99.90
1534;DHT22;760;48.822;9.304;2024-01-30T19:59:35;9.00;99.90
1534;DHT22;760;48.822;9.304;2024-01-30T20:02:01;9.00;99.90
1534;DHT22;760;48.822;9.304;2024-01-30T20:04:27;8.90;99.90
1534;DHT22;760;48.822;9.304;2024-01-30T20:06:53;9.00;99.90
1534;DHT22;760;48.822;9.304;2024-01-30T20:09:18;9.00;99.90
1534;DHT22;760;48.822;9.304;2024-01-30T20:11:44;9.00;99.90
1534;DHT22;760;48.822;9.304;2024-01-30T20:14:09;9.00;99.90
1534;DHT22;760;48.822;9.304;2024-01-30T20:16:40;9.00;99.90
1534;DHT22;760;48.822;9.304;2024-01-30T20:19:06;9.00;99.90
1534;DHT22;760;48.822;9.304;2024-01-30T20:21:33;9.00;99.90
1534;DHT22;760;48.822;9.304;2024-01-30T20:23:59;9.00;99.90
1534;DHT22;760;48.822;9.304;2024-01-30T20:26:25;9.00;99.90
1534;DHT22;760;48.822;9.304;2024-01-30T20:28:50;9.00;99.90
1534;DHT22;760;48.822;9.304;2024-01-30T20:31:23;9.00;99.90
1534;DHT22;760;48.822;9.304;2024-01-30T20:33:49;9.00;99.90
1534;DHT22;760;48.822;9.304;2024-01-30T20:36:16;9.00;99.90
1534;DHT22;760;48.822;9.304;2024-01-30T20:38:42;8.90;99.90
1534;DHT22;760;48.822;9.304;2024-01-30T20:41:08;8.90;99.90
1534;DHT22;760;48.822;9.304;2024-01-30T20:43:42;8.80;99.90
1534;DHT22;760;48.822;9.304;2024-01-30T20:46:08;8.80;99.90
1534;DHT22;760;48.822;9.304;2024-01-30T20:48:34;8.70;99.90
1534;DHT22;760;48.822;9.304;2024-01-30T20:51:00;8.70;99.90
1534;DHT22;760;48.822;9.304;2024-01-30T20:53:26;8.60;99.90
1534;DHT22;760;48.822;9.304;2024-01-30T20:55:52;8.50;99.90
1534;DHT22;760;48.822;9.304;2024-01-30T20:58:17;8.40;99.90
1534;DHT22;760;48.822;9.304;2024-01-30T21:00:43;8.40;99.90
1534;DHT22;760;48.822;9.304;2024-01-30T21:03:10;8.30;99.90
1534;DHT22;760;48.822;9.304;2024-01-30T21:05:36;8.20;99.90
1534;DHT22;760;48.822;9.304;2024-01-30T21:08:03;8.10;99.90
1534;DHT22;760;48.822;9.304;2024-01-30T21:10:29;8.00;99.90
1534;DHT22;760;48.822;9.304;2024-01-30T21:12:55;8.00;99.90
1534;DHT22;760;48.822;9.304;2024-01-30T21:15:20;7.90;99.90
1534;DHT22;760;48.822;9.304;2024-01-30T21:17:46;7.90;99.90
1534;DHT22;760;48.822;9.304;2024-01-30T21:20:12;7.80;99.90
1534;DHT22;760;48.822;9.304;2024-01-30T21:22:39;7.80;99.90
1534;DHT22;760;48.822;9.304;2024-01-30T21:25:04;7.90;99.90
1534;DHT22;760;48.822;9.304;2024-01-30T21:27:31;7.90;99.90